KBKN

Blackwell-Tonkawa Municipal Airport

Blackwell, Oklahoma, USA
METAR KBKN 170355Z AUTO 00000KT 10SM CLR 08/06 A3033 RMK AO2
Observed Flight Rules
Oct-17 @ 03:55 UTC (an hour ago) Visual Flight Rules
Visibility Clouds
10 miles
  • Clear skies
Temperatures Readings
Current 8°C / 46°F
Dewpoint 6°C / 43°F
Humidity 87%
Altimeter 30.33" Hg
Pressure 1027 hPa
Elevation 314
METAR KBKN 170355Z AUTO 00000KT 10SM CLR 08/06 A3033 RMK AO2
Observed Flight Rules
Oct-17 @ 03:55 UTC
(an hour ago)
VFR
Clouds
  • Clear skies
Temperature Dewpoint
8°C / 46°F 6°C / 43°F
Humidity Altimeter Pressure
87% 30.33" Hg 1027 hPa